Utah State University
, Logan
Last Weather Update:11/25/2011 8:00:00 AM
Date
ETo
ETc
Rain
Irrigation
Req
Temp
Max
Temp
Min
Temp
Avg
Avg RH
Avg Wind
Avg Solar
inches
inches
incehs
inches
F
F
F
%
%
watts/m2
10/1/2011 0.17" 0.10" 0.00" 0.10" 82.0° 56.1° 68.4° 33.2% 5.3 MPH 202.9w/m2
10/2/2011 0.15" 0.08" 0.00" 0.08" 78.9° 56.6° 67.5° 37.8% 5.4 MPH 169.0w/m2
10/3/2011 0.16" 0.09" 0.00" 0.09" 81.7° 55.5° 65.7° 41.8% 5.5 MPH 197.5w/m2
10/4/2011 0.09" 0.04" 0.27" -0.17" 69.2° 54.0° 59.9° 66.7% 3.8 MPH 132.8w/m2
10/5/2011 0.06" 0.03" 0.18" -0.12" 61.6° 41.5° 54.4° 67.2% 4.1 MPH 48.8w/m2
10/6/2011 0.02" 0.01" 0.34" -0.26" 42.1° 35.6° 38.6° 91.4% 0.7 MPH 35.6w/m2
10/7/2011 0.02" 0.01" 0.07" -0.05" 42.5° 38.2° 40.8° 84.1% 2.6 MPH 25.2w/m2
10/8/2011 0.05" 0.02" 0.08" -0.04" 52.2° 39.8° 44.8° 81.6% 1.0 MPH 91.6w/m2
10/9/2011 0.10" 0.04" 0.00" 0.04" 59.3° 38.1° 46.6° 67.0% 2.9 MPH 198.5w/m2
10/10/2011 0.08" 0.03" 0.01" 0.02" 60.7° 39.1° 48.7° 63.6% 4.0 MPH 132.4w/m2
10/11/2011 0.06" 0.02" 0.06" -0.02" 63.4° 45.3° 53.0° 69.2% 2.0 MPH 100.9w/m2
10/12/2011 0.09" 0.03" 0.00" 0.03" 62.7° 38.2° 49.8° 56.2% 1.1 MPH 177.0w/m2
10/13/2011 0.11" 0.04" 0.00" 0.04" 68.4° 41.8° 52.8° 49.7% 3.7 MPH 176.5w/m2
10/14/2011 0.11" 0.04" 0.00" 0.04" 73.5° 44.4° 56.5° 45.0% 4.0 MPH 174.9w/m2
10/15/2011 0.12" 0.04" 0.00" 0.04" 76.2° 48.0° 60.0° 44.0% 3.9 MPH 164.0w/m2
10/16/2011 0.07" 0.02" 0.14" -0.09" 65.4° 46.0° 55.6° 55.2% 4.0 MPH 59.3w/m2
10/17/2011 0.07" 0.02" 0.07" -0.04" 59.3° 42.3° 48.7° 71.5% 1.0 MPH 135.1w/m2
10/18/2011 0.09" 0.02" 0.00" 0.02" 61.5° 36.8° 46.7° 55.9% 3.3 MPH 168.9w/m2
10/19/2011 0.09" 0.02" 0.00" 0.02" 64.9° 36.9° 49.7° 50.8% 2.8 MPH 160.7w/m2
10/20/2011 0.10" 0.02" 0.00" 0.02" 66.0° 39.8° 50.5° 51.9% 3.7 MPH 159.1w/m2
10/21/2011 0.09" 0.02" 0.00" 0.02" 66.8° 43.6° 52.5° 50.6% 3.5 MPH 152.1w/m2
10/22/2011 0.07" 0.01" 0.00" 0.01" 65.1° 41.5° 51.3° 54.3% 1.2 MPH 153.6w/m2
10/23/2011 0.09" 0.01" 0.00" 0.01" 68.0° 40.9° 51.6° 53.9% 3.7 MPH 153.0w/m2
10/24/2011 0.08" 0.01" 0.00" 0.01" 68.7° 43.1° 53.5° 46.8% 3.9 MPH 130.9w/m2
10/25/2011 0.04" 0.00" 0.04" -0.03" 49.5° 34.0° 41.2° 63.7% 1.1 MPH 107.8w/m2
10/26/2011 0.05" 0.01" 0.00" 0.01" 48.1° 26.7° 35.7° 51.8% 1.0 MPH 144.5w/m2
10/27/2011 0.06" 0.00" 0.00" 0.00" 50.3° 27.3° 37.0° 41.3% 2.5 MPH 145.2w/m2
10/28/2011 0.06" 0.00" 0.00" 0.00" 53.3° 29.0° 38.4° 41.8% 3.7 MPH 125.1w/m2
10/29/2011 0.05" 0.00" 0.00" 0.00" 58.0° 33.0° 43.0° 37.6% 1.4 MPH 85.1w/m2
10/30/2011 0.06" 0.00" 0.00" 0.00" 61.9° 35.9° 45.7° 55.7% 1.8 MPH 137.7w/m2
10/31/2011 0.06" 0.00" 0.04" -0.03" 60.8° 38.4° 47.4° 52.6% 3.1 MPH 92.7w/m2
Totals: 2.50" 0.80" 1.30" -0.24" 82.0° 26.7° 50.2° 55.9% 3.0 MPH 133.5w/m2